createdAt,value
2023-04-23T00:32:26.891Z,17.30
2023-04-23T00:36:37.306Z,19.40
2023-04-23T00:40:26.465Z,22.60
2023-04-23T00:44:14.804Z,26.40
2023-04-23T00:48:03.980Z,26.10
2023-04-23T00:51:59.022Z,26.80
2023-04-23T00:55:44.039Z,23.70
2023-04-23T00:59:53.065Z,24.40
2023-04-23T01:03:42.503Z,23.40
2023-04-23T01:07:34.296Z,22.50
2023-04-23T01:11:24.013Z,23.30
2023-04-23T01:15:12.447Z,22.80
2023-04-23T01:19:02.093Z,23.10
2023-04-23T01:22:54.362Z,21.60
2023-04-23T01:26:43.498Z,20.40
2023-04-23T01:30:32.987Z,20.20
2023-04-23T01:34:22.730Z,19.80
2023-04-23T01:38:14.886Z,21.40
2023-04-23T01:41:52.985Z,19.70
2023-04-23T01:45:42.472Z,18.30
2023-04-23T01:49:26.418Z,15.40
2023-04-23T01:53:08.585Z,14.80
2023-04-23T01:56:56.855Z,14.80
2023-04-23T02:00:56.132Z,14.50
2023-04-23T02:04:45.808Z,13.00
2023-04-23T02:08:21.658Z,12.80
2023-04-23T02:12:03.417Z,12.80
2023-04-23T02:15:50.543Z,10.40
2023-04-23T02:19:40.523Z,11.50
2023-04-23T02:23:29.950Z,11.10
2023-04-23T02:27:19.120Z,10.20
2023-04-23T02:35:49.834Z,10.50
2023-04-23T02:39:39.849Z,10.80
2023-04-23T02:43:29.034Z,10.70
2023-04-23T02:47:10.716Z,11.00
2023-04-23T02:50:59.897Z,11.00
2023-04-23T02:54:39.325Z,10.60
2023-04-23T02:58:15.327Z,9.10
2023-04-23T03:01:58.396Z,7.70
2023-04-23T03:05:52.849Z,8.00
2023-04-23T03:09:38.505Z,8.50
2023-04-23T03:13:27.766Z,9.00
2023-04-23T03:17:10.534Z,9.00
2023-04-23T03:20:59.780Z,8.40
2023-04-23T03:24:54.721Z,9.00
2023-04-23T03:28:44.646Z,6.80
2023-04-23T03:32:34.862Z,6.60
2023-04-23T03:36:24.134Z,6.30
2023-04-23T03:40:13.310Z,5.90
2023-04-23T03:44:11.786Z,6.50
2023-04-23T03:48:03.797Z,6.70
2023-04-23T03:51:46.655Z,6.90
2023-04-23T03:55:36.089Z,6.20
2023-04-23T03:59:25.396Z,6.30
2023-04-23T04:03:16.822Z,6.20
2023-04-23T04:07:06.399Z,6.50
2023-04-23T04:10:48.318Z,6.60
2023-04-23T04:14:43.679Z,6.40
2023-04-23T04:18:33.424Z,6.60
2023-04-23T04:22:22.671Z,7.10
2023-04-23T04:26:20.696Z,6.80
2023-04-23T04:30:03.080Z,6.70
2023-04-23T04:33:54.992Z,7.00
2023-04-23T04:37:44.358Z,6.50
2023-04-23T04:41:33.895Z,5.80
2023-04-23T04:45:23.184Z,6.30
2023-04-23T04:49:12.390Z,6.40
2023-04-23T04:52:54.478Z,6.10
2023-04-23T04:56:43.737Z,5.80
2023-04-23T05:00:27.322Z,5.60
2023-04-23T05:04:17.270Z,5.50
2023-04-23T05:08:06.829Z,5.10
2023-04-23T05:11:59.186Z,5.00
2023-04-23T05:15:48.564Z,4.40
2023-04-23T05:19:37.739Z,4.70
2023-04-23T05:23:27.098Z,5.00
2023-04-23T05:27:16.415Z,5.30
2023-04-23T05:31:05.917Z,5.10
2023-04-23T05:34:55.243Z,4.90
2023-04-23T05:38:43.953Z,5.20
2023-04-23T05:42:38.096Z,4.70
2023-04-23T05:46:27.772Z,5.30
2023-04-23T05:54:34.368Z,4.70
2023-04-23T05:58:23.624Z,4.80
2023-04-23T06:11:34.477Z,5.00
2023-04-23T06:15:24.732Z,4.50
2023-04-23T06:19:13.940Z,4.90
2023-04-23T06:23:27.111Z,4.90
2023-04-23T06:27:16.398Z,5.00
2023-04-23T06:31:05.830Z,5.30
2023-04-23T06:35:01.584Z,5.30
2023-04-23T06:38:51.460Z,5.60
2023-04-23T06:42:40.651Z,5.30
2023-04-23T06:46:34.908Z,5.40
2023-04-23T06:50:24.159Z,5.60
2023-04-23T06:54:50.925Z,5.10
2023-04-23T06:58:40.153Z,5.50
2023-04-23T07:02:30.200Z,6.00
2023-04-23T07:06:18.487Z,6.00
2023-04-23T07:10:07.883Z,5.70
2023-04-23T07:13:57.087Z,5.30
2023-04-23T07:17:46.546Z,5.40
2023-04-23T07:21:36.798Z,5.00
2023-04-23T07:25:26.612Z,5.60
2023-04-23T07:29:15.937Z,5.20
2023-04-23T07:33:05.225Z,5.50
2023-04-23T07:36:55.009Z,5.90
2023-04-23T07:40:46.020Z,5.40
2023-04-23T07:44:35.300Z,5.30
2023-04-23T07:48:25.252Z,5.50
2023-04-23T07:51:47.811Z,5.70
2023-04-23T07:55:17.205Z,5.20
2023-04-23T07:58:44.308Z,5.10
2023-04-23T08:02:27.186Z,5.60
2023-04-23T08:06:16.476Z,4.70
2023-04-23T08:10:05.774Z,5.20
2023-04-23T08:13:53.755Z,4.80
2023-04-23T08:17:41.536Z,4.50
2023-04-23T08:21:30.777Z,4.10
2023-04-23T08:25:16.256Z,3.10
2023-04-23T08:29:05.551Z,2.90
2023-04-23T08:32:54.944Z,3.10
2023-04-23T08:36:43.965Z,2.30
2023-04-23T08:40:38.904Z,2.70
2023-04-23T08:44:30.832Z,2.40
2023-04-23T08:48:14.424Z,2.30
2023-04-23T08:51:54.296Z,3.40
2023-04-23T08:55:43.476Z,3.50
2023-04-23T08:59:32.831Z,2.80
2023-04-23T09:03:28.095Z,3.00
2023-04-23T09:07:04.650Z,3.70
2023-04-23T09:11:09.696Z,3.20
2023-04-23T09:14:58.365Z,2.90
2023-04-23T09:18:46.652Z,2.80
2023-04-23T09:38:00.773Z,3.20
2023-04-23T10:20:41.986Z,3.30
2023-04-23T10:24:31.725Z,3.30
2023-04-23T10:28:21.599Z,3.20
2023-04-23T10:32:12.468Z,3.80
2023-04-23T10:36:01.686Z,3.20
2023-04-23T10:39:44.968Z,3.30
2023-04-23T10:43:35.216Z,4.00
2023-04-23T10:47:59.246Z,3.60
2023-04-23T10:55:40.821Z,4.40
2023-04-23T10:59:30.556Z,3.90
2023-04-23T11:03:25.599Z,3.70
2023-04-23T11:07:30.219Z,3.20
2023-04-23T11:11:37.758Z,3.90
2023-04-23T11:15:40.982Z,3.40
2023-04-23T11:19:45.444Z,3.50
2023-04-23T11:27:10.257Z,3.40
2023-04-23T11:30:59.522Z,3.50
2023-04-23T11:34:48.791Z,3.40
2023-04-23T11:38:41.122Z,3.40
2023-04-23T11:42:56.064Z,2.90
2023-04-23T11:46:45.340Z,2.80
2023-04-23T11:50:34.896Z,3.00
2023-04-23T11:54:27.176Z,2.90
2023-04-23T11:58:22.649Z,3.10
2023-04-23T12:02:20.918Z,3.20
2023-04-23T12:06:10.618Z,4.10
2023-04-23T12:09:53.389Z,3.50
2023-04-23T12:13:42.601Z,3.10
2023-04-23T12:17:34.688Z,2.60
2023-04-23T12:21:26.109Z,2.70
2023-04-23T12:25:17.545Z,3.10
2023-04-23T12:29:06.869Z,3.10
2023-04-23T12:32:56.331Z,2.80
2023-04-23T12:36:45.591Z,2.40
2023-04-23T12:40:34.785Z,2.80
2023-04-23T12:44:24.515Z,2.90
2023-04-23T12:48:13.704Z,3.20
2023-04-23T12:52:02.954Z,3.10
2023-04-23T12:56:12.119Z,3.10
2023-04-23T13:00:01.489Z,2.60
2023-04-23T13:03:51.562Z,3.70
2023-04-23T13:07:41.254Z,3.70
2023-04-23T13:11:30.882Z,2.80
2023-04-23T13:15:20.415Z,2.90
2023-04-23T13:19:09.974Z,2.70
2023-04-23T13:22:59.277Z,2.90
2023-04-23T13:26:48.429Z,2.60
2023-04-23T13:30:38.109Z,3.10
2023-04-23T13:34:27.358Z,2.90
2023-04-23T13:38:09.482Z,2.80
2023-04-23T13:42:08.491Z,3.80
2023-04-23T13:46:00.084Z,3.70
2023-04-23T13:49:49.596Z,3.60
2023-04-23T13:53:38.997Z,3.60
2023-04-23T13:57:28.173Z,3.70
2023-04-23T14:01:16.159Z,2.50
2023-04-23T14:05:05.572Z,3.10
2023-04-23T14:08:53.700Z,3.70
2023-04-23T14:12:43.002Z,2.70
2023-04-23T14:16:32.430Z,2.90
2023-04-23T14:20:22.161Z,2.80
2023-04-23T14:24:17.447Z,4.20
2023-04-23T14:28:06.654Z,3.70
2023-04-23T14:31:55.944Z,5.20
2023-04-23T14:35:46.919Z,8.10
2023-04-23T14:39:34.873Z,3.80
2023-04-23T14:43:22.850Z,2.90
2023-04-23T14:47:11.209Z,2.40
2023-04-23T14:51:00.106Z,3.00
2023-04-23T14:54:48.114Z,2.90
2023-04-23T14:58:36.097Z,6.70
2023-04-23T15:02:13.072Z,7.10
2023-04-23T15:05:55.391Z,4.10
2023-04-23T15:09:43.468Z,3.00
2023-04-23T15:13:36.441Z,2.80
2023-04-23T15:17:30.625Z,2.50
2023-04-23T15:21:18.779Z,3.50
2023-04-23T15:25:06.755Z,3.10
2023-04-23T15:28:56.004Z,2.90
2023-04-23T15:32:43.947Z,2.20
2023-04-23T15:36:31.955Z,2.30
2023-04-23T15:40:19.890Z,2.50
2023-04-23T15:44:08.257Z,2.50
2023-04-23T15:47:56.184Z,2.50
2023-04-23T15:51:44.345Z,2.40
2023-04-23T15:55:33.644Z,2.50
2023-04-23T15:59:21.613Z,3.10
2023-04-23T16:03:09.639Z,2.80
2023-04-23T16:06:57.671Z,3.00
2023-04-23T16:10:46.260Z,3.20
2023-04-23T16:14:34.165Z,3.50
2023-04-23T16:18:22.079Z,2.80
2023-04-23T16:22:10.011Z,2.80
2023-04-23T16:25:58.667Z,2.50
2023-04-23T16:29:46.671Z,3.40
2023-04-23T16:33:34.925Z,5.70
2023-04-23T16:37:22.976Z,7.30
2023-04-23T16:41:11.012Z,8.30
2023-04-23T16:45:00.040Z,9.40
2023-04-23T16:48:41.256Z,9.70
2023-04-23T16:52:29.302Z,40.60
2023-04-23T16:56:10.333Z,7.30
2023-04-23T16:59:58.349Z,6.10
2023-04-23T17:03:46.605Z,5.40
2023-04-23T17:07:34.754Z,5.80
2023-04-23T17:11:22.692Z,5.50
2023-04-23T17:15:10.612Z,9.40
2023-04-23T17:18:58.536Z,11.30
2023-04-23T17:22:46.852Z,9.10
2023-04-23T17:26:34.910Z,8.00
2023-04-23T17:30:23.960Z,17.80
2023-04-23T17:34:11.961Z,15.60
2023-04-23T17:37:59.962Z,10.90
2023-04-23T17:41:48.973Z,11.00
2023-04-23T17:45:36.956Z,10.00
2023-04-23T17:50:12.053Z,10.60
2023-04-23T17:53:34.154Z,15.30
2023-04-23T17:57:15.503Z,12.70
2023-04-23T18:01:11.728Z,14.00
2023-04-23T18:04:48.822Z,16.60
2023-04-23T18:08:27.619Z,20.10
2023-04-23T18:12:15.125Z,32.20
2023-04-23T18:16:03.114Z,44.70
2023-04-23T18:19:51.293Z,49.00
2023-04-23T18:23:45.313Z,56.20
2023-04-23T18:27:34.264Z,67.20
2023-04-23T18:31:26.781Z,66.90
2023-04-23T18:35:18.048Z,62.20
2023-04-23T18:38:50.102Z,54.90
2023-04-23T18:42:29.971Z,49.20
2023-04-23T18:46:18.074Z,40.50
2023-04-23T18:50:18.262Z,35.40
2023-04-23T18:54:07.238Z,30.70
2023-04-23T18:57:55.186Z,29.40
2023-04-23T19:01:45.184Z,30.80
2023-04-23T19:05:33.954Z,28.20
2023-04-23T19:09:24.384Z,24.20
2023-04-23T19:13:12.354Z,20.50
2023-04-23T19:17:00.437Z,18.80
2023-04-23T19:20:48.685Z,18.70
2023-04-23T19:24:36.729Z,18.50
2023-04-23T19:28:24.700Z,18.10
2023-04-23T19:32:12.972Z,18.10
2023-04-23T19:36:01.069Z,20.00
2023-04-23T19:39:49.096Z,21.20
2023-04-23T19:43:38.150Z,22.40
2023-04-23T19:47:18.952Z,26.30
2023-04-23T19:51:07.129Z,26.20
2023-04-23T19:54:57.452Z,25.10
2023-04-23T19:58:47.564Z,22.90
2023-04-23T20:02:35.972Z,24.30
2023-04-23T20:06:24.110Z,27.70
2023-04-23T20:10:14.474Z,24.50
2023-04-23T20:14:04.086Z,25.20
2023-04-23T20:17:52.655Z,24.60
2023-04-23T20:21:33.773Z,25.80
2023-04-23T20:25:22.951Z,28.20
2023-04-23T20:29:05.212Z,29.90
2023-04-23T20:32:53.335Z,30.50
2023-04-23T20:36:41.297Z,32.30
2023-04-23T20:40:21.932Z,33.40
2023-04-23T20:44:09.862Z,33.50
2023-04-23T20:47:57.923Z,33.50
2023-04-23T20:51:45.912Z,33.30
2023-04-23T20:55:40.029Z,33.60
2023-04-23T20:59:28.442Z,34.30
2023-04-23T21:03:03.928Z,31.60
2023-04-23T21:06:46.850Z,30.50
2023-04-23T21:10:34.988Z,30.20
2023-04-23T21:14:09.373Z,29.90
2023-04-23T21:16:57.594Z,26.90
2023-04-23T21:19:25.154Z,27.10
2023-04-23T21:21:52.776Z,27.00
2023-04-23T21:25:11.977Z,28.20
2023-04-23T21:29:01.085Z,26.70
2023-04-23T21:32:50.445Z,26.40
2023-04-23T21:36:39.863Z,25.50
2023-04-23T21:40:27.851Z,18.10
2023-04-23T21:44:15.800Z,15.30
2023-04-23T21:48:04.030Z,16.40
2023-04-23T21:51:52.499Z,17.30
2023-04-23T21:55:43.463Z,20.60
2023-04-23T21:59:30.279Z,22.10
2023-04-23T22:03:13.751Z,19.00
2023-04-23T22:06:59.166Z,19.20
2023-04-23T22:10:47.413Z,16.40
2023-04-23T22:14:19.823Z,16.60
2023-04-23T22:18:07.782Z,16.50
2023-04-23T22:21:54.612Z,15.50
2023-04-23T22:25:41.585Z,14.60
2023-04-23T22:29:23.204Z,15.00
2023-04-23T22:33:11.148Z,14.90
2023-04-23T22:37:01.138Z,12.80
2023-04-23T22:40:49.333Z,13.40
2023-04-23T22:44:37.276Z,12.80
2023-04-23T22:48:23.986Z,11.50
2023-04-23T22:52:17.153Z,11.60
2023-04-23T22:56:05.148Z,11.40
2023-04-23T22:59:54.180Z,13.10
2023-04-23T23:03:42.215Z,13.40
2023-04-23T23:07:30.237Z,12.90
2023-04-23T23:11:18.173Z,13.10
2023-04-23T23:15:12.302Z,12.90
2023-04-23T23:19:00.253Z,12.50
2023-04-23T23:22:48.344Z,11.50
2023-04-23T23:26:32.264Z,10.80
2023-04-23T23:30:04.924Z,10.30
2023-04-23T23:33:51.769Z,10.70
2023-04-23T23:37:30.148Z,10.00
2023-04-23T23:41:17.176Z,9.60
2023-04-23T23:45:05.234Z,9.70
2023-04-23T23:48:53.946Z,9.60
2023-04-23T23:52:41.896Z,9.30
2023-04-23T23:56:31.212Z,9.00
